createdAt,value
2018-12-30T00:01:30.756Z,98.39
2018-12-30T00:04:21.682Z,98.44
2018-12-30T00:07:26.260Z,98.51
2018-12-30T00:10:17.239Z,98.50
2018-12-30T00:13:00.685Z,98.70
2018-12-30T00:15:51.969Z,98.61
2018-12-30T00:18:35.218Z,99.07
2018-12-30T00:21:26.154Z,99.09
2018-12-30T00:24:09.703Z,99.17
2018-12-30T00:27:00.718Z,98.68
2018-12-30T00:29:42.743Z,98.89
2018-12-30T00:32:33.989Z,98.92
2018-12-30T00:35:17.756Z,98.72
2018-12-30T00:38:08.698Z,98.62
2018-12-30T00:40:52.334Z,98.69
2018-12-30T00:43:44.248Z,98.80
2018-12-30T00:46:28.415Z,98.80
2018-12-30T00:49:12.373Z,99.09
2018-12-30T00:52:03.379Z,98.90
2018-12-30T00:54:47.156Z,99.34
2018-12-30T00:57:38.094Z,99.30
2018-12-30T01:00:20.656Z,98.97
2018-12-30T01:03:11.604Z,98.67
2018-12-30T01:05:55.721Z,98.53
2018-12-30T01:08:39.563Z,98.47
2018-12-30T01:11:30.987Z,98.62
2018-12-30T01:14:14.217Z,98.54
2018-12-30T01:17:05.269Z,98.40
2018-12-30T01:19:49.230Z,98.53
2018-12-30T01:22:59.686Z,98.70
2018-12-30T01:25:43.345Z,98.49
2018-12-30T01:28:34.570Z,98.75
2018-12-30T01:31:17.806Z,98.72
2018-12-30T01:34:08.747Z,99.59
2018-12-30T01:36:52.838Z,99.19
2018-12-30T01:39:36.925Z,99.04
2018-12-30T01:42:19.951Z,99.15
2018-12-30T01:45:04.116Z,98.97
2018-12-30T01:47:55.141Z,99.06
2018-12-30T01:50:38.523Z,98.72
2018-12-30T01:53:29.770Z,99.07
2018-12-30T01:56:13.217Z,99.64
2018-12-30T01:59:04.422Z,99.21
2018-12-30T02:01:48.403Z,99.41
2018-12-30T02:04:39.352Z,99.39
2018-12-30T02:07:23.170Z,99.39
2018-12-30T02:10:14.139Z,99.12
2018-12-30T02:12:57.900Z,98.86
2018-12-30T02:15:48.854Z,99.10
2018-12-30T02:18:32.679Z,98.97
2018-12-30T02:21:16.571Z,98.87
2018-12-30T02:24:07.541Z,98.88
2018-12-30T02:26:51.147Z,99.05
2018-12-30T02:29:42.463Z,99.57
2018-12-30T02:32:26.435Z,99.51
2018-12-30T02:35:17.722Z,99.41
2018-12-30T02:38:01.737Z,99.30
2018-12-30T02:40:45.224Z,98.90
2018-12-30T02:43:36.493Z,99.01
2018-12-30T02:46:20.412Z,99.39
2018-12-30T02:49:11.370Z,99.15
2018-12-30T02:51:55.029Z,99.25
2018-12-30T02:54:46.242Z,99.03
2018-12-30T02:57:30.326Z,99.35
2018-12-30T03:00:21.625Z,99.64
2018-12-30T03:02:53.424Z,99.36
2018-12-30T03:05:37.492Z,99.31
2018-12-30T03:08:10.500Z,99.56
2018-12-30T03:10:53.841Z,99.47
2018-12-30T03:13:44.900Z,99.51
2018-12-30T03:16:29.150Z,99.17
2018-12-30T03:19:20.209Z,99.27
2018-12-30T03:22:04.425Z,99.19
2018-12-30T03:24:55.480Z,99.14
2018-12-30T03:27:40.304Z,98.97
2018-12-30T03:30:31.632Z,99.06
2018-12-30T03:33:16.036Z,98.68
2018-12-30T03:36:07.352Z,98.41
2018-12-30T03:38:51.228Z,98.61
2018-12-30T03:41:35.440Z,98.63
2018-12-30T03:44:26.485Z,98.81
2018-12-30T03:47:09.864Z,98.75
2018-12-30T03:50:00.827Z,98.35
2018-12-30T03:52:44.891Z,98.27
2018-12-30T03:55:35.911Z,98.38
2018-12-30T03:58:19.634Z,98.29
2018-12-30T04:01:10.876Z,98.10
2018-12-30T04:03:55.042Z,97.98
2018-12-30T04:06:46.385Z,98.16
2018-12-30T04:09:29.656Z,98.22
2018-12-30T04:12:13.198Z,98.09
2018-12-30T04:15:04.614Z,98.01
2018-12-30T04:17:48.783Z,97.82
2018-12-30T04:20:40.026Z,97.58
2018-12-30T04:23:24.366Z,97.59
2018-12-30T04:26:16.579Z,97.70
2018-12-30T04:28:48.362Z,97.65
2018-12-30T04:31:39.431Z,97.62
2018-12-30T04:34:23.223Z,97.27
2018-12-30T04:37:08.240Z,97.32
2018-12-30T04:39:52.387Z,97.33
2018-12-30T04:42:43.446Z,97.23
2018-12-30T04:45:27.077Z,97.28
2018-12-30T04:47:58.855Z,97.29
2018-12-30T04:50:42.772Z,97.52
2018-12-30T04:53:34.012Z,97.54
2018-12-30T04:56:05.892Z,97.37
2018-12-30T04:58:56.877Z,97.35
2018-12-30T05:01:40.678Z,97.48
2018-12-30T05:04:31.922Z,97.75
2018-12-30T05:07:15.911Z,97.74
2018-12-30T05:10:07.053Z,97.68
2018-12-30T05:12:50.592Z,97.48
2018-12-30T05:15:41.561Z,97.32
2018-12-30T05:18:24.837Z,97.62
2018-12-30T05:21:16.087Z,97.53
2018-12-30T05:23:59.482Z,97.48
2018-12-30T05:26:50.460Z,97.58
2018-12-30T05:29:34.405Z,97.46
2018-12-30T05:32:25.667Z,97.41
2018-12-30T05:35:09.177Z,97.66
2018-12-30T05:37:53.173Z,97.63
2018-12-30T05:40:36.807Z,97.52
2018-12-30T05:43:09.538Z,97.34
2018-12-30T05:45:53.034Z,97.55
2018-12-30T05:48:44.160Z,97.63
2018-12-30T05:51:28.376Z,97.49
2018-12-30T05:54:19.383Z,97.60
2018-12-30T05:57:03.434Z,97.57
2018-12-30T05:59:54.517Z,97.80
2018-12-30T06:02:38.614Z,97.78
2018-12-30T06:05:29.954Z,97.80
2018-12-30T06:08:14.128Z,97.19
2018-12-30T06:11:05.629Z,97.07
2018-12-30T06:13:48.948Z,97.21
2018-12-30T06:16:40.123Z,96.96
2018-12-30T06:19:24.427Z,97.01
2018-12-30T06:22:15.734Z,96.95
2018-12-30T06:24:59.249Z,97.03
2018-12-30T06:27:31.044Z,97.01
2018-12-30T06:30:14.769Z,96.94
2018-12-30T06:33:05.848Z,96.93
2018-12-30T06:35:49.931Z,96.95
2018-12-30T06:38:33.984Z,96.93
2018-12-30T06:41:26.182Z,96.96
2018-12-30T06:44:10.137Z,97.28
2018-12-30T06:47:01.387Z,97.57
2018-12-30T06:49:46.152Z,97.26
2018-12-30T06:52:37.139Z,96.74
2018-12-30T06:55:21.043Z,96.89
2018-12-30T06:58:12.107Z,96.93
2018-12-30T07:00:56.136Z,96.96
2018-12-30T07:03:40.114Z,96.96
2018-12-30T07:06:31.177Z,96.38
2018-12-30T07:09:14.799Z,96.49
2018-12-30T07:12:05.856Z,96.73
2018-12-30T07:14:49.547Z,96.44
2018-12-30T07:17:40.583Z,96.64
2018-12-30T07:20:24.616Z,96.81
2018-12-30T07:23:15.591Z,96.54
2018-12-30T07:25:59.043Z,96.52
2018-12-30T07:28:43.680Z,96.44
2018-12-30T07:31:34.918Z,96.37
2018-12-30T07:34:18.491Z,96.41
2018-12-30T07:37:09.484Z,96.48
2018-12-30T07:39:53.374Z,96.60
2018-12-30T07:42:44.630Z,96.65
2018-12-30T07:45:28.364Z,96.58
2018-12-30T07:49:05.186Z,96.97
2018-12-30T07:51:56.142Z,96.95
2018-12-30T07:54:39.926Z,97.08
2018-12-30T07:57:30.895Z,96.83
2018-12-30T08:00:14.930Z,96.93
2018-12-30T08:03:05.901Z,96.71
2018-12-30T08:05:47.988Z,96.54
2018-12-30T08:08:38.974Z,96.58
2018-12-30T08:11:22.393Z,96.81
2018-12-30T08:14:13.649Z,96.83
2018-12-30T08:16:57.424Z,96.71
2018-12-30T08:19:48.468Z,96.64
2018-12-30T08:22:32.412Z,96.60
2018-12-30T08:25:23.456Z,95.93
2018-12-30T08:28:06.952Z,96.05
2018-12-30T08:30:59.161Z,95.93
2018-12-30T08:33:43.162Z,96.05
2018-12-30T08:36:34.131Z,96.03
2018-12-30T08:39:17.423Z,95.94
2018-12-30T08:42:08.452Z,96.08
2018-12-30T08:44:52.175Z,96.05
2018-12-30T08:47:43.135Z,96.34
2018-12-30T08:50:26.828Z,96.05
2018-12-30T08:53:17.778Z,96.15
2018-12-30T08:56:01.498Z,96.41
2018-12-30T08:58:52.449Z,96.05
2018-12-30T09:01:35.977Z,95.95
2018-12-30T09:04:27.036Z,96.25
2018-12-30T09:07:10.302Z,96.43
2018-12-30T09:09:54.248Z,96.17
2018-12-30T09:12:45.275Z,96.40
2018-12-30T09:15:29.098Z,96.22
2018-12-30T09:21:22.718Z,96.24
2018-12-30T09:24:13.664Z,96.36
2018-12-30T09:26:55.709Z,96.65
2018-12-30T09:29:47.373Z,96.33
2018-12-30T09:32:19.139Z,96.50
2018-12-30T09:35:02.876Z,96.19
2018-12-30T09:37:53.849Z,96.30
2018-12-30T09:40:37.948Z,96.22
2018-12-30T09:43:29.278Z,95.99
2018-12-30T09:46:13.506Z,95.95
2018-12-30T09:49:04.799Z,96.00
2018-12-30T09:51:48.659Z,95.54
2018-12-30T09:54:39.878Z,95.67
2018-12-30T09:57:23.887Z,95.52
2018-12-30T10:00:14.937Z,94.98
2018-12-30T10:02:59.009Z,94.83
2018-12-30T10:05:49.970Z,94.63
2018-12-30T10:08:33.284Z,94.51
2018-12-30T10:11:24.329Z,94.32
2018-12-30T10:14:08.213Z,94.37
2018-12-30T10:16:59.181Z,94.59
2018-12-30T10:19:43.230Z,94.23
2018-12-30T10:22:26.684Z,94.44
2018-12-30T10:25:17.664Z,94.61
2018-12-30T10:28:01.736Z,94.48
2018-12-30T10:30:45.306Z,94.69
2018-12-30T10:33:36.336Z,94.84
2018-12-30T10:36:19.652Z,94.95
2018-12-30T10:39:04.162Z,95.30
2018-12-30T10:41:55.123Z,94.92
2018-12-30T10:44:38.531Z,95.02
2018-12-30T10:47:29.575Z,94.86
2018-12-30T10:50:13.448Z,94.55
2018-12-30T10:52:57.243Z,94.76
2018-12-30T10:55:48.198Z,94.63
2018-12-30T10:58:32.174Z,94.46
2018-12-30T11:01:15.495Z,94.70
2018-12-30T11:04:06.700Z,94.67
2018-12-30T11:06:50.022Z,94.57
2018-12-30T11:09:41.047Z,93.93
2018-12-30T11:12:24.367Z,94.17
2018-12-30T11:15:15.713Z,94.00
2018-12-30T11:17:59.706Z,93.76
2018-12-30T11:20:50.672Z,93.82
2018-12-30T11:23:32.804Z,94.05
2018-12-30T11:26:23.772Z,94.09
2018-12-30T11:29:07.359Z,94.01
2018-12-30T11:31:39.118Z,93.80
2018-12-30T11:34:23.514Z,93.88
2018-12-30T11:37:14.478Z,93.71
2018-12-30T11:39:58.623Z,94.03
2018-12-30T11:42:49.590Z,93.72
2018-12-30T11:45:33.707Z,93.87
2018-12-30T11:48:24.674Z,93.98
2018-12-30T11:51:08.093Z,94.11
2018-12-30T11:53:51.914Z,94.14
2018-12-30T11:56:35.591Z,93.86
2018-12-30T11:59:26.551Z,93.88
2018-12-30T12:02:09.986Z,93.81
2018-12-30T12:05:00.938Z,93.77
2018-12-30T12:07:44.237Z,93.54
2018-12-30T12:10:35.180Z,93.22
2018-12-30T12:13:19.375Z,93.59
2018-12-30T12:16:10.327Z,93.46
2018-12-30T12:18:53.759Z,93.60
2018-12-30T12:21:44.727Z,93.45
2018-12-30T12:24:28.140Z,93.31
2018-12-30T12:27:19.107Z,93.39
2018-12-30T12:30:02.658Z,93.52
2018-12-30T12:32:53.617Z,93.60
2018-12-30T12:35:37.927Z,93.54
2018-12-30T12:38:28.912Z,93.56
2018-12-30T12:41:12.487Z,93.93
2018-12-30T12:44:03.608Z,93.81
2018-12-30T12:46:47.090Z,93.89
2018-12-30T12:49:38.044Z,93.58
2018-12-30T12:52:21.879Z,93.47
2018-12-30T12:55:12.829Z,93.61
2018-12-30T12:57:56.349Z,93.66
2018-12-30T13:00:47.376Z,93.70
2018-12-30T13:03:19.437Z,93.26
2018-12-30T13:06:10.382Z,93.50
2018-12-30T13:08:53.990Z,93.43
2018-12-30T13:11:44.934Z,93.69
2018-12-30T13:14:28.958Z,93.48
2018-12-30T13:17:19.919Z,94.11
2018-12-30T13:20:07.613Z,93.84
2018-12-30T13:22:58.575Z,93.62
2018-12-30T13:25:42.183Z,94.22
2018-12-30T13:28:33.527Z,93.89
2018-12-30T13:31:17.565Z,94.00
2018-12-30T13:34:08.528Z,93.65
2018-12-30T13:36:52.191Z,94.16
2018-12-30T13:39:35.990Z,94.16
2018-12-30T13:42:19.778Z,93.81
2018-12-30T13:45:03.358Z,94.30
2018-12-30T13:47:47.016Z,94.26
2018-12-30T13:50:38.003Z,94.24
2018-12-30T13:53:22.081Z,94.11
2018-12-30T13:56:13.030Z,94.00
2018-12-30T13:58:57.194Z,94.10
2018-12-30T14:01:48.579Z,94.10
2018-12-30T14:04:32.862Z,93.88
2018-12-30T14:07:23.888Z,93.97
2018-12-30T14:10:08.122Z,93.96
2018-12-30T14:12:59.161Z,93.80
2018-12-30T14:15:50.630Z,94.06
2018-12-30T14:18:28.756Z,93.69
2018-12-30T14:21:19.702Z,93.65
2018-12-30T14:24:03.170Z,94.40
2018-12-30T14:26:59.703Z,94.20
2018-12-30T14:29:48.777Z,93.98
2018-12-30T14:32:39.722Z,93.12
2018-12-30T14:35:23.867Z,93.33
2018-12-30T14:38:14.952Z,93.53
2018-12-30T14:40:58.251Z,93.38
2018-12-30T14:43:49.552Z,92.95
2018-12-30T14:46:34.948Z,92.90
2018-12-30T14:52:28.761Z,92.86
2018-12-30T14:55:12.819Z,92.78
2018-12-30T14:58:03.837Z,92.84
2018-12-30T15:00:49.045Z,92.70
2018-12-30T15:03:39.998Z,92.65
2018-12-30T15:06:23.381Z,92.41
2018-12-30T15:09:14.348Z,92.35
2018-12-30T15:11:58.229Z,92.71
2018-12-30T15:14:41.538Z,92.58
2018-12-30T15:17:32.799Z,93.09
2018-12-30T15:20:16.831Z,92.65
2018-12-30T15:23:07.782Z,92.52
2018-12-30T15:25:51.875Z,92.72
2018-12-30T15:31:45.989Z,92.37
2018-12-30T15:34:37.205Z,92.80
2018-12-30T15:37:21.602Z,92.08
2018-12-30T15:40:05.513Z,92.79
2018-12-30T15:42:49.284Z,92.24
2018-12-30T15:45:33.063Z,91.92
2018-12-30T15:48:24.009Z,92.02
2018-12-30T15:51:07.264Z,91.86
2018-12-30T15:53:58.212Z,92.29
2018-12-30T15:56:42.330Z,91.83
2018-12-30T15:59:33.359Z,92.56
2018-12-30T16:02:17.088Z,92.34
2018-12-30T16:05:08.138Z,91.91
2018-12-30T16:07:51.346Z,91.61
2018-12-30T16:10:42.738Z,91.91
2018-12-30T16:13:26.769Z,91.59
2018-12-30T16:19:26.931Z,92.53
2018-12-30T16:22:17.906Z,92.09
2018-12-30T16:25:01.884Z,91.99
2018-12-30T16:27:52.844Z,92.22
2018-12-30T16:30:34.897Z,92.08
2018-12-30T16:33:26.184Z,92.22
2018-12-30T16:36:09.432Z,92.34
2018-12-30T16:39:00.470Z,91.97
2018-12-30T16:41:46.205Z,92.10
2018-12-30T16:44:37.433Z,92.20
2018-12-30T16:47:22.067Z,92.39
2018-12-30T16:50:13.097Z,92.53
2018-12-30T16:52:57.192Z,92.55
2018-12-30T16:55:48.448Z,92.62
2018-12-30T16:58:31.720Z,93.18
2018-12-30T17:01:22.683Z,93.47
2018-12-30T17:04:05.539Z,93.03
2018-12-30T17:06:49.184Z,92.70
2018-12-30T17:09:40.135Z,92.84
2018-12-30T17:12:25.047Z,92.88
2018-12-30T17:15:15.997Z,92.77
2018-12-30T17:17:59.642Z,93.11
2018-12-30T17:20:50.602Z,93.05
2018-12-30T17:23:34.561Z,93.63
2018-12-30T17:26:26.242Z,93.17
2018-12-30T17:29:10.431Z,93.37
2018-12-30T17:32:02.226Z,93.59
2018-12-30T17:34:56.152Z,93.95
2018-12-30T17:37:47.455Z,93.51
2018-12-30T17:40:19.281Z,93.23
2018-12-30T17:43:10.243Z,93.54
2018-12-30T17:45:54.839Z,93.79
2018-12-30T17:48:45.807Z,93.72
2018-12-30T17:51:29.277Z,93.67
2018-12-30T17:54:20.494Z,93.27
2018-12-30T17:57:04.565Z,93.42
2018-12-30T17:59:55.521Z,93.72
2018-12-30T18:02:39.005Z,94.13
2018-12-30T18:05:30.025Z,94.11
2018-12-30T18:08:13.648Z,93.97
2018-12-30T18:11:23.579Z,93.80
2018-12-30T18:14:07.432Z,93.70
2018-12-30T18:16:39.175Z,93.76
2018-12-30T18:19:22.757Z,94.31
2018-12-30T18:22:13.792Z,94.17
2018-12-30T18:24:57.958Z,94.12
2018-12-30T18:27:48.930Z,93.82
2018-12-30T18:30:32.631Z,94.12
2018-12-30T18:33:16.151Z,94.83
2018-12-30T18:36:07.106Z,94.50
2018-12-30T18:38:52.989Z,94.50
2018-12-30T18:41:37.094Z,94.91
2018-12-30T18:44:29.082Z,94.74
2018-12-30T18:47:13.406Z,94.12
2018-12-30T18:50:04.647Z,94.17
2018-12-30T18:52:48.716Z,94.09
2018-12-30T18:55:39.689Z,94.25
2018-12-30T18:58:23.740Z,94.42
2018-12-30T19:01:14.759Z,94.64
2018-12-30T19:03:58.478Z,94.42
2018-12-30T19:06:49.507Z,94.18
2018-12-30T19:09:33.340Z,94.15
2018-12-30T19:12:24.286Z,94.33
2018-12-30T19:15:08.145Z,94.52
2018-12-30T19:17:59.162Z,95.14
2018-12-30T19:20:42.498Z,95.17
2018-12-30T19:23:33.451Z,95.54
2018-12-30T19:26:16.797Z,96.06
2018-12-30T19:29:08.579Z,95.14
2018-12-30T19:31:52.983Z,96.06
2018-12-30T19:34:36.641Z,95.77
2018-12-30T19:37:28.529Z,95.15
2018-12-30T19:40:12.516Z,95.63
2018-12-30T19:43:03.585Z,95.55
2018-12-30T19:45:35.615Z,96.13
2018-12-30T19:48:26.904Z,95.49
2018-12-30T19:51:10.592Z,96.27
2018-12-30T19:54:02.183Z,96.89
2018-12-30T19:56:46.298Z,97.01
2018-12-30T19:59:37.267Z,96.33
2018-12-30T20:02:20.704Z,96.52
2018-12-30T20:05:11.664Z,96.64
2018-12-30T20:07:57.213Z,96.47
2018-12-30T20:10:48.178Z,96.80
2018-12-30T20:13:31.617Z,97.11
2018-12-30T20:16:22.577Z,97.55
2018-12-30T20:19:05.902Z,97.01
2018-12-30T20:21:56.869Z,96.92
2018-12-30T20:24:40.889Z,97.20
2018-12-30T20:27:31.847Z,97.10
2018-12-30T20:30:16.387Z,97.07
2018-12-30T20:33:07.340Z,97.42
2018-12-30T20:35:50.825Z,97.44
2018-12-30T20:38:41.791Z,97.27
2018-12-30T20:41:25.178Z,96.71
2018-12-30T20:44:16.136Z,97.71
2018-12-30T20:46:59.658Z,97.28
2018-12-30T20:49:50.714Z,97.20
2018-12-30T20:52:36.076Z,97.26
2018-12-30T20:55:27.039Z,97.46
2018-12-30T20:58:10.937Z,97.19
2018-12-30T21:01:01.972Z,97.59
2018-12-30T21:03:45.998Z,97.40
2018-12-30T21:06:37.036Z,97.64
2018-12-30T21:09:20.834Z,98.01
2018-12-30T21:12:11.872Z,98.12
2018-12-30T21:14:55.435Z,98.20
2018-12-30T21:17:46.458Z,97.76
2018-12-30T21:20:30.215Z,97.88
2018-12-30T21:23:21.162Z,98.21
2018-12-30T21:26:05.021Z,98.14
2018-12-30T21:28:56.617Z,98.09
2018-12-30T21:31:40.570Z,98.27
2018-12-30T21:34:31.876Z,98.21
2018-12-30T21:37:15.435Z,98.70
2018-12-30T21:39:58.868Z,97.97
2018-12-30T21:42:50.464Z,98.13
2018-12-30T21:45:33.976Z,98.28
2018-12-30T21:51:27.962Z,98.78
2018-12-30T21:54:18.917Z,97.97
2018-12-30T21:57:02.853Z,98.86
2018-12-30T21:59:53.882Z,98.32
2018-12-30T22:02:37.952Z,98.01
2018-12-30T22:05:29.286Z,98.05
2018-12-30T22:08:13.205Z,97.92
2018-12-30T22:11:04.350Z,98.42
2018-12-30T22:13:48.204Z,98.29
2018-12-30T22:16:39.522Z,98.62
2018-12-30T22:19:23.139Z,98.10
2018-12-30T22:22:14.114Z,98.09
2018-12-30T22:24:58.233Z,98.20
2018-12-30T22:27:41.714Z,98.43
2018-12-30T22:33:43.071Z,98.59
2018-12-30T22:36:27.038Z,98.17
2018-12-30T22:39:19.210Z,97.67
2018-12-30T22:42:19.935Z,97.85
2018-12-30T22:45:03.904Z,97.94
2018-12-30T22:47:47.717Z,98.26
2018-12-30T22:50:38.672Z,98.09
2018-12-30T22:53:22.148Z,97.85
2018-12-30T22:56:13.103Z,98.15
2018-12-30T22:58:56.434Z,98.18
2018-12-30T23:01:48.379Z,98.17
2018-12-30T23:04:31.877Z,98.09
2018-12-30T23:07:23.094Z,98.81
2018-12-30T23:10:07.177Z,98.49
2018-12-30T23:12:58.146Z,98.78
2018-12-30T23:15:41.398Z,98.55
2018-12-30T23:18:32.373Z,98.70
2018-12-30T23:21:16.041Z,99.22
2018-12-30T23:24:06.990Z,98.78
2018-12-30T23:26:50.552Z,99.27
2018-12-30T23:29:41.514Z,98.87
2018-12-30T23:32:25.996Z,99.80
2018-12-30T23:35:16.947Z,99.34
2018-12-30T23:38:01.122Z,99.12
2018-12-30T23:40:44.370Z,99.48
2018-12-30T23:43:35.402Z,99.60
2018-12-30T23:46:19.588Z,99.20
2018-12-30T23:49:10.544Z,99.42
2018-12-30T23:51:54.647Z,99.68
2018-12-30T23:54:45.902Z,99.53
2018-12-30T23:57:29.966Z,99.50
